Time;durP1;ratioP1;P1;durP2;ratioP2;P2;SDS_P1;SDS_P2;PMS_P1;PMS_P2;Temp;Humidity;BMP_temperature;BMP_pressure;BME280_temperature;BME280_humidity;BME280_pressure;Samples;Min_cycle;Max_cycle;Signal;HPM_P1;HPM_P2
2022/09/28 00:01:13;;;;;;;;;;;13.30;99.90;;;;;;5043088;28;19931;-80
2022/09/28 00:03:39;;;;;;;;;;;13.30;99.90;;;;;;5052744;28;19928;-80
2022/09/28 00:06:06;;;;;;;;;;;13.40;99.90;;;;;;5062876;28;19917;-80
2022/09/28 00:08:33;;;;;;;;;;;13.40;99.90;;;;;;5061566;28;19912;-80
2022/09/28 00:10:59;;;;;;;;;;;13.40;99.90;;;;;;5060681;28;20409;-80
2022/09/28 00:13:25;;;;;;;;;;;13.40;99.90;;;;;;5062719;28;20005;-80
2022/09/28 00:16:00;;;;;;;;;;;13.40;99.90;;;;;;5061804;28;19919;-80
2022/09/28 00:18:26;;;;;;;;;;;13.40;99.90;;;;;;5059887;28;19952;-80
2022/09/28 00:21:02;;;;;;;;;;;13.50;99.90;;;;;;5062545;28;20523;-80
2022/09/28 00:23:27;;;;;;;;;;;13.50;99.90;;;;;;5054939;28;19913;-82
2022/09/28 00:25:53;;;;;;;;;;;13.50;99.90;;;;;;5058145;28;20289;-80
2022/09/28 00:28:19;;;;;;;;;;;13.50;99.90;;;;;;5061570;28;20007;-79
2022/09/28 00:30:44;;;;;;;;;;;13.60;99.90;;;;;;5062228;28;19916;-80
2022/09/28 00:33:10;;;;;;;;;;;13.60;99.90;;;;;;5061362;28;19924;-81
2022/09/28 00:35:35;;;;;;;;;;;13.50;99.90;;;;;;5060319;28;20190;-80
2022/09/28 00:38:02;;;;;;;;;;;13.60;99.90;;;;;;5061440;28;19920;-79
2022/09/28 00:40:28;;;;;;;;;;;13.60;99.90;;;;;;5060872;28;19920;-81
2022/09/28 00:42:53;;;;;;;;;;;13.60;99.90;;;;;;5061723;28;19961;-81
2022/09/28 00:45:20;;;;;;;;;;;13.60;99.90;;;;;;5053255;28;20811;-80
2022/09/28 00:47:49;;;;;;;;;;;13.70;99.90;;;;;;5060508;28;19921;-80
2022/09/28 00:50:21;;;;;;;;;;;13.70;99.90;;;;;;5062494;28;19920;-80
2022/09/28 00:52:53;;;;;;;;;;;13.70;99.90;;;;;;5091762;28;19928;-80
2022/09/28 00:55:21;;;;;;;;;;;13.70;99.90;;;;;;5057597;28;19917;-81
2022/09/28 00:57:48;;;;;;;;;;;13.70;99.90;;;;;;5060940;28;19939;-80
2022/09/28 01:00:14;;;;;;;;;;;13.70;99.90;;;;;;5061127;28;19920;-80
2022/09/28 01:02:40;;;;;;;;;;;13.70;99.90;;;;;;5060337;28;19931;-82
2022/09/28 01:05:08;;;;;;;;;;;13.70;99.90;;;;;;5061543;28;19927;-80
2022/09/28 01:07:34;;;;;;;;;;;13.80;99.90;;;;;;5060757;28;19974;-80
2022/09/28 01:10:00;;;;;;;;;;;13.80;99.90;;;;;;5060706;28;20428;-81
2022/09/28 01:12:25;;;;;;;;;;;13.80;99.90;;;;;;5060764;28;19916;-80
2022/09/28 01:14:51;;;;;;;;;;;13.80;99.90;;;;;;5061731;28;19944;-80
2022/09/28 01:17:37;;;;;;;;;;;13.80;99.90;;;;;;5060918;28;20015;-81
2022/09/28 01:20:04;;;;;;;;;;;13.80;99.90;;;;;;5060441;28;19998;-81
2022/09/28 01:22:41;;;;;;;;;;;13.80;99.90;;;;;;5060756;28;19928;-80
2022/09/28 01:25:22;;;;;;;;;;;13.80;99.90;;;;;;5060431;28;19916;-80
2022/09/28 01:27:57;;;;;;;;;;;13.80;99.90;;;;;;5061634;28;19962;-80
2022/09/28 01:30:23;;;;;;;;;;;13.80;99.90;;;;;;5061306;28;19995;-81
2022/09/28 01:33:02;;;;;;;;;;;13.80;99.90;;;;;;5061584;28;19959;-80
2022/09/28 01:35:28;;;;;;;;;;;13.90;99.90;;;;;;5060436;28;19967;-80
2022/09/28 01:37:53;;;;;;;;;;;13.90;99.90;;;;;;5059092;28;20456;-81
2022/09/28 01:40:20;;;;;;;;;;;13.80;99.90;;;;;;5064857;28;19924;-80
2022/09/28 01:42:48;;;;;;;;;;;13.90;99.90;;;;;;5063301;28;19924;-80
2022/09/28 01:45:17;;;;;;;;;;;13.80;99.90;;;;;;5063500;28;20590;-80
2022/09/28 01:47:43;;;;;;;;;;;13.90;99.90;;;;;;5061806;28;19917;-81
2022/09/28 01:50:11;;;;;;;;;;;13.90;99.90;;;;;;5062994;28;20492;-80
2022/09/28 01:52:41;;;;;;;;;;;13.90;99.90;;;;;;5063384;28;19916;-80
2022/09/28 01:55:32;;;;;;;;;;;13.90;99.90;;;;;;5062175;28;19966;-80
2022/09/28 01:58:02;;;;;;;;;;;13.90;99.90;;;;;;5062088;28;19916;-81
2022/09/28 02:00:27;;;;;;;;;;;13.90;99.90;;;;;;5063670;28;19920;-81
2022/09/28 02:02:54;;;;;;;;;;;13.90;99.90;;;;;;5064351;28;19940;-81
2022/09/28 02:05:23;;;;;;;;;;;13.90;99.90;;;;;;5063729;28;20005;-80
2022/09/28 02:07:53;;;;;;;;;;;14.00;99.90;;;;;;5063324;28;20787;-81
2022/09/28 02:10:21;;;;;;;;;;;13.90;99.90;;;;;;5063996;28;19920;-80
2022/09/28 02:12:49;;;;;;;;;;;14.00;99.90;;;;;;5063999;28;19912;-81
2022/09/28 02:15:19;;;;;;;;;;;13.90;99.90;;;;;;5064140;28;20003;-81
2022/09/28 02:17:45;;;;;;;;;;;14.00;99.90;;;;;;5063870;28;19928;-80
2022/09/28 02:20:10;;;;;;;;;;;13.90;99.90;;;;;;5062811;28;19920;-80
2022/09/28 02:22:44;;;;;;;;;;;13.90;99.90;;;;;;5063740;28;19916;-80
2022/09/28 02:25:20;;;;;;;;;;;13.90;99.90;;;;;;5063085;28;19920;-81
2022/09/28 02:27:59;;;;;;;;;;;13.90;99.90;;;;;;5063141;28;20452;-80
2022/09/28 02:30:25;;;;;;;;;;;13.90;99.90;;;;;;5063890;28;19967;-80
2022/09/28 02:32:53;;;;;;;;;;;14.00;99.90;;;;;;5064184;28;19971;-80
2022/09/28 02:35:18;;;;;;;;;;;14.00;99.90;;;;;;5063869;28;19913;-80
2022/09/28 02:37:44;;;;;;;;;;;14.00;99.90;;;;;;5063734;28;19923;-80
2022/09/28 02:40:14;;;;;;;;;;;14.00;99.90;;;;;;5063825;28;19916;-80
2022/09/28 02:42:59;;;;;;;;;;;14.00;99.90;;;;;;5062974;28;20013;-80
2022/09/28 02:45:32;;;;;;;;;;;14.00;99.90;;;;;;5063616;28;20530;-80
2022/09/28 02:48:14;;;;;;;;;;;14.00;99.90;;;;;;5061054;28;19928;-80
2022/09/28 02:50:52;;;;;;;;;;;14.00;99.90;;;;;;5061354;28;19919;-80
2022/09/28 02:53:44;;;;;;;;;;;14.00;99.90;;;;;;5063142;28;19923;-80
2022/09/28 02:56:09;;;;;;;;;;;14.00;99.90;;;;;;5061110;28;20046;-81
2022/09/28 02:58:50;;;;;;;;;;;14.00;99.90;;;;;;5063227;28;20444;-80
2022/09/28 03:01:36;;;;;;;;;;;13.90;99.90;;;;;;5063369;28;19955;-80
2022/09/28 03:04:17;;;;;;;;;;;13.90;99.90;;;;;;5055638;28;19924;-80
2022/09/28 03:06:46;;;;;;;;;;;13.90;99.90;;;;;;5062014;28;19999;-80
2022/09/28 03:09:11;;;;;;;;;;;13.80;99.90;;;;;;5061161;28;19943;-81
2022/09/28 03:11:41;;;;;;;;;;;13.90;99.90;;;;;;5063043;28;20061;-81
2022/09/28 03:14:08;;;;;;;;;;;13.80;99.90;;;;;;5063238;28;20017;-82
2022/09/28 03:16:33;;;;;;;;;;;13.90;99.90;;;;;;5063490;28;19916;-81
2022/09/28 03:18:59;;;;;;;;;;;13.80;99.90;;;;;;5060103;28;20663;-81
2022/09/28 03:21:24;;;;;;;;;;;13.80;99.90;;;;;;5060398;28;19924;-81
2022/09/28 03:23:50;;;;;;;;;;;13.80;99.90;;;;;;5092665;28;19923;-82
2022/09/28 03:26:15;;;;;;;;;;;13.80;99.90;;;;;;5062898;28;20405;-81
2022/09/28 03:28:41;;;;;;;;;;;13.80;99.90;;;;;;5061005;28;19923;-80
2022/09/28 03:31:07;;;;;;;;;;;13.80;99.90;;;;;;5063633;28;19923;-80
2022/09/28 03:33:32;;;;;;;;;;;13.80;99.90;;;;;;5057651;28;19916;-80
2022/09/28 03:35:58;;;;;;;;;;;13.80;99.90;;;;;;5061601;28;19981;-80
2022/09/28 03:38:23;;;;;;;;;;;13.80;99.90;;;;;;5060789;28;20017;-81
2022/09/28 03:40:52;;;;;;;;;;;13.80;99.90;;;;;;5063523;28;20415;-81
2022/09/28 03:43:18;;;;;;;;;;;13.80;99.90;;;;;;5060844;28;19920;-79
2022/09/28 03:45:50;;;;;;;;;;;13.80;99.90;;;;;;5061935;28;19996;-80
2022/09/28 03:48:15;;;;;;;;;;;13.80;99.90;;;;;;5063598;28;19939;-80
2022/09/28 03:50:41;;;;;;;;;;;13.80;99.90;;;;;;5058858;28;20389;-80
2022/09/28 03:53:07;;;;;;;;;;;13.80;99.90;;;;;;5059386;28;19916;-82
2022/09/28 03:55:32;;;;;;;;;;;13.80;99.90;;;;;;5062603;28;19916;-81
2022/09/28 03:57:58;;;;;;;;;;;13.80;99.90;;;;;;5061510;28;19970;-81
2022/09/28 04:00:23;;;;;;;;;;;13.80;99.90;;;;;;5061449;28;19931;-81
2022/09/28 04:02:49;;;;;;;;;;;13.80;99.90;;;;;;5059843;28;19938;-81
2022/09/28 04:05:14;;;;;;;;;;;13.80;99.90;;;;;;5054938;28;19927;-81
2022/09/28 04:07:40;;;;;;;;;;;13.80;99.90;;;;;;5061012;28;19923;-81
2022/09/28 04:10:05;;;;;;;;;;;13.70;99.90;;;;;;5061787;28;19961;-80
2022/09/28 04:12:31;;;;;;;;;;;13.70;99.90;;;;;;5060508;28;19963;-81
2022/09/28 04:14:57;;;;;;;;;;;13.70;99.90;;;;;;5063417;28;19917;-80
2022/09/28 04:17:22;;;;;;;;;;;13.70;99.90;;;;;;5059874;28;19920;-80
2022/09/28 04:19:48;;;;;;;;;;;13.70;99.90;;;;;;5062595;28;20283;-80
2022/09/28 04:22:13;;;;;;;;;;;13.70;99.90;;;;;;5061652;28;19917;-80
2022/09/28 04:24:42;;;;;;;;;;;13.70;99.90;;;;;;5059243;28;19920;-80
2022/09/28 04:29:51;;;;;;;;;;;13.70;99.90;;;;;;5062528;28;20009;-81
2022/09/28 04:32:17;;;;;;;;;;;13.60;99.90;;;;;;5059783;28;20015;-80
2022/09/28 04:34:43;;;;;;;;;;;13.60;99.90;;;;;;5061672;28;19920;-80
2022/09/28 04:37:08;;;;;;;;;;;13.60;99.90;;;;;;5061637;28;19973;-79
2022/09/28 04:39:34;;;;;;;;;;;13.60;99.90;;;;;;5062543;28;19923;-81
2022/09/28 04:42:00;;;;;;;;;;;13.60;99.90;;;;;;5062082;28;20772;-81
2022/09/28 04:44:25;;;;;;;;;;;13.50;99.90;;;;;;5061313;28;20054;-80
2022/09/28 04:46:51;;;;;;;;;;;13.50;99.90;;;;;;5061884;28;19917;-80
2022/09/28 04:49:16;;;;;;;;;;;13.60;99.90;;;;;;5062070;28;19916;-80
2022/09/28 04:51:42;;;;;;;;;;;13.50;99.90;;;;;;5061618;28;20305;-80
2022/09/28 04:54:07;;;;;;;;;;;13.50;99.90;;;;;;5062782;28;19913;-80
2022/09/28 04:56:33;;;;;;;;;;;13.50;99.90;;;;;;5072089;28;19916;-80
2022/09/28 04:58:58;;;;;;;;;;;13.50;99.90;;;;;;5061814;28;19923;-79
2022/09/28 05:01:24;;;;;;;;;;;13.60;99.90;;;;;;5061082;28;19924;-81
2022/09/28 05:03:50;;;;;;;;;;;13.50;99.90;;;;;;5060495;28;20195;-79
2022/09/28 05:06:15;;;;;;;;;;;13.50;99.90;;;;;;5061418;28;19978;-80
2022/09/28 05:08:41;;;;;;;;;;;13.50;99.90;;;;;;5060813;28;19920;-79
2022/09/28 05:11:09;;;;;;;;;;;13.40;99.90;;;;;;5061875;28;20487;-79
2022/09/28 05:13:40;;;;;;;;;;;13.50;99.90;;;;;;5062486;28;19912;-80
2022/09/28 05:16:06;;;;;;;;;;;13.50;99.90;;;;;;5064978;28;19943;-81
2022/09/28 05:18:32;;;;;;;;;;;13.50;99.90;;;;;;5062598;28;19923;-80
2022/09/28 05:20:57;;;;;;;;;;;13.50;99.90;;;;;;5062560;28;19924;-80
2022/09/28 05:23:23;;;;;;;;;;;13.50;99.90;;;;;;5064836;28;19916;-80
2022/09/28 05:25:49;;;;;;;;;;;13.50;99.90;;;;;;5064429;28;19943;-83
2022/09/28 05:28:19;;;;;;;;;;;13.50;99.90;;;;;;5058586;28;19924;-80
2022/09/28 05:30:44;;;;;;;;;;;13.50;99.90;;;;;;5064276;28;19912;-80
2022/09/28 05:33:10;;;;;;;;;;;13.50;99.90;;;;;;5048346;28;20356;-80
2022/09/28 05:35:35;;;;;;;;;;;13.50;99.90;;;;;;5060170;28;19917;-79
2022/09/28 05:38:02;;;;;;;;;;;13.50;99.90;;;;;;5064341;28;19939;-80
2022/09/28 05:40:27;;;;;;;;;;;13.50;99.90;;;;;;5066950;28;19931;-80
2022/09/28 05:42:57;;;;;;;;;;;13.60;99.90;;;;;;5065989;28;20355;-80
2022/09/28 05:45:22;;;;;;;;;;;13.50;99.90;;;;;;5064223;28;19956;-80
2022/09/28 05:47:48;;;;;;;;;;;13.50;99.90;;;;;;5064729;28;20069;-83
2022/09/28 05:50:14;;;;;;;;;;;13.40;99.90;;;;;;5065597;28;20469;-81
2022/09/28 05:52:40;;;;;;;;;;;13.50;99.90;;;;;;5065514;28;19912;-82
2022/09/28 05:55:06;;;;;;;;;;;13.40;99.90;;;;;;5065588;28;19912;-81
2022/09/28 05:57:31;;;;;;;;;;;13.50;99.90;;;;;;5067084;28;20694;-81
2022/09/28 05:59:57;;;;;;;;;;;13.40;99.90;;;;;;5118039;27;20480;-82
2022/09/28 06:02:23;;;;;;;;;;;13.40;99.90;;;;;;5076678;28;20699;-83
2022/09/28 06:04:50;;;;;;;;;;;13.50;99.90;;;;;;5064849;28;20358;-83
2022/09/28 06:07:19;;;;;;;;;;;13.50;99.90;;;;;;5065247;28;19947;-83
2022/09/28 06:09:45;;;;;;;;;;;13.40;99.90;;;;;;5063670;28;19917;-84
2022/09/28 06:12:10;;;;;;;;;;;13.40;99.90;;;;;;5065842;28;19969;-83
2022/09/28 06:14:36;;;;;;;;;;;13.40;99.90;;;;;;5063270;28;19923;-81
2022/09/28 06:17:01;;;;;;;;;;;13.40;99.90;;;;;;5065489;28;19920;-82
2022/09/28 06:19:27;;;;;;;;;;;13.50;99.90;;;;;;5065791;28;19918;-83
2022/09/28 06:21:52;;;;;;;;;;;13.50;99.90;;;;;;5065285;28;19920;-84
2022/09/28 06:24:18;;;;;;;;;;;13.50;99.90;;;;;;5064769;28;19912;-81
2022/09/28 06:26:43;;;;;;;;;;;13.50;99.90;;;;;;5063114;28;19974;-83
2022/09/28 06:29:09;;;;;;;;;;;13.50;99.90;;;;;;5065205;28;19916;-82
2022/09/28 06:31:34;;;;;;;;;;;13.50;99.90;;;;;;5065284;28;19966;-82
2022/09/28 06:34:00;;;;;;;;;;;13.50;99.90;;;;;;5064945;28;19916;-82
2022/09/28 06:36:32;;;;;;;;;;;13.60;99.90;;;;;;5064978;28;19916;-82
2022/09/28 06:38:58;;;;;;;;;;;13.60;99.90;;;;;;5063461;28;19917;-81
2022/09/28 06:41:23;;;;;;;;;;;13.60;99.90;;;;;;5069160;28;19951;-82
2022/09/28 06:43:49;;;;;;;;;;;13.60;99.90;;;;;;5064664;28;19912;-82
2022/09/28 06:46:14;;;;;;;;;;;13.50;99.90;;;;;;5064889;28;19920;-82
2022/09/28 06:48:40;;;;;;;;;;;13.50;99.90;;;;;;5095082;28;19989;-83
2022/09/28 06:51:06;;;;;;;;;;;13.60;99.90;;;;;;5064977;28;20352;-82
2022/09/28 06:53:31;;;;;;;;;;;13.50;99.90;;;;;;5064510;28;19917;-82
2022/09/28 06:55:57;;;;;;;;;;;13.50;99.90;;;;;;5068899;28;20020;-82
2022/09/28 06:58:23;;;;;;;;;;;13.60;99.90;;;;;;5084834;28;19912;-82
2022/09/28 07:00:51;;;;;;;;;;;13.60;99.90;;;;;;5080467;28;19916;-82
2022/09/28 07:03:21;;;;;;;;;;;13.50;99.90;;;;;;5064701;28;19959;-82
2022/09/28 07:05:52;;;;;;;;;;;13.60;99.90;;;;;;5064670;28;19958;-82
2022/09/28 07:08:19;;;;;;;;;;;13.50;99.90;;;;;;5064685;28;20414;-83
2022/09/28 07:10:45;;;;;;;;;;;13.50;99.90;;;;;;5064862;28;20419;-82
2022/09/28 07:13:12;;;;;;;;;;;13.60;99.90;;;;;;5070173;28;20020;-82
2022/09/28 07:15:38;;;;;;;;;;;13.60;99.90;;;;;;5084858;28;19912;-83
2022/09/28 07:18:05;;;;;;;;;;;13.50;99.90;;;;;;5084909;28;19912;-81
2022/09/28 07:20:34;;;;;;;;;;;13.60;99.90;;;;;;5079404;28;20061;-82
2022/09/28 07:23:01;;;;;;;;;;;13.60;99.90;;;;;;5064487;28;19913;-82
2022/09/28 07:25:28;;;;;;;;;;;13.60;99.90;;;;;;5064624;28;20033;-82
2022/09/28 07:27:56;;;;;;;;;;;13.70;99.90;;;;;;5062428;28;19916;-82
2022/09/28 07:30:22;;;;;;;;;;;13.70;99.90;;;;;;5072363;28;19912;-82
2022/09/28 07:32:47;;;;;;;;;;;13.70;99.90;;;;;;5069171;28;20389;-82
2022/09/28 07:35:13;;;;;;;;;;;13.80;99.90;;;;;;5063919;28;20582;-81
2022/09/28 07:37:38;;;;;;;;;;;13.80;99.90;;;;;;5063272;28;19917;-81
2022/09/28 07:42:49;;;;;;;;;;;13.70;99.90;;;;;;5064174;28;19924;-81
2022/09/28 07:45:15;;;;;;;;;;;13.60;99.90;;;;;;5063181;28;20704;-81
2022/09/28 07:47:41;;;;;;;;;;;13.60;99.90;;;;;;5043807;28;20027;-81
2022/09/28 07:50:07;;;;;;;;;;;13.70;99.90;;;;;;5056818;28;19916;-81
2022/09/28 07:52:34;;;;;;;;;;;13.60;99.90;;;;;;5063563;28;19924;-80
2022/09/28 07:55:00;;;;;;;;;;;13.50;99.90;;;;;;5062003;28;19912;-79
2022/09/28 07:57:26;;;;;;;;;;;13.50;99.90;;;;;;5063248;28;19919;-80
2022/09/28 07:59:55;;;;;;;;;;;13.70;99.90;;;;;;5060507;28;19924;-80
2022/09/28 08:02:20;;;;;;;;;;;15.60;99.90;;;;;;5063327;28;20556;-80
2022/09/28 08:04:47;;;;;;;;;;;14.90;99.90;;;;;;5043014;28;19924;-80
2022/09/28 08:07:14;;;;;;;;;;;14.80;99.90;;;;;;5062556;28;20306;-80
2022/09/28 08:09:40;;;;;;;;;;;14.60;99.90;;;;;;5062218;28;19912;-80
2022/09/28 08:12:06;;;;;;;;;;;14.50;99.90;;;;;;5056750;28;19923;-79
2022/09/28 08:14:36;;;;;;;;;;;14.30;99.90;;;;;;5041680;28;19982;-81
2022/09/28 08:17:02;;;;;;;;;;;14.40;99.90;;;;;;5042142;28;19927;-82
2022/09/28 08:21:43;;;;;;;;;;;14.70;99.90;;;;;;5041453;28;19917;-80
2022/09/28 08:22:17;;;;;;;;;;;14.60;99.90;;;;;;5042297;28;20370;-81
2022/09/28 08:24:42;;;;;;;;;;;14.50;99.90;;;;;;5041840;28;19948;-80
2022/09/28 08:27:09;;;;;;;;;;;14.40;99.90;;;;;;5042294;28;20147;-80
2022/09/28 08:29:35;;;;;;;;;;;14.30;99.90;;;;;;5042062;28;20363;-80
2022/09/28 08:32:00;;;;;;;;;;;14.20;99.90;;;;;;5041958;28;19948;-80
2022/09/28 08:34:26;;;;;;;;;;;14.30;99.90;;;;;;5042257;28;20297;-80
2022/09/28 08:36:55;;;;;;;;;;;14.30;99.90;;;;;;5042307;28;19966;-80
2022/09/28 08:39:21;;;;;;;;;;;14.30;99.90;;;;;;5042021;28;19916;-80
2022/09/28 08:42:14;;;;;;;;;;;14.30;99.90;;;;;;5041857;28;19998;-80
2022/09/28 08:44:51;;;;;;;;;;;14.30;99.90;;;;;;5041950;28;19954;-80
2022/09/28 08:50:25;;;;;;;;;;;14.40;99.90;;;;;;5033488;28;19928;-81
2022/09/28 08:52:53;;;;;;;;;;;14.30;99.90;;;;;;5041917;28;20298;-81
2022/09/28 08:55:27;;;;;;;;;;;14.50;99.90;;;;;;5042095;28;20282;-80
2022/09/28 08:58:13;;;;;;;;;;;14.60;99.90;;;;;;5041562;28;19920;-81
2022/09/28 09:00:47;;;;;;;;;;;15.10;99.90;;;;;;5034233;28;20368;-80
2022/09/28 09:03:15;;;;;;;;;;;15.10;99.90;;;;;;4972411;28;2115385;-81
2022/09/28 09:06:00;;;;;;;;;;;14.80;99.90;;;;;;5079450;28;19920;-81
2022/09/28 09:08:35;;;;;;;;;;;14.90;99.90;;;;;;5061410;28;20379;-80
2022/09/28 09:11:37;;;;;;;;;;;14.80;99.90;;;;;;5047604;28;20393;-81
2022/09/28 09:14:02;;;;;;;;;;;14.90;99.90;;;;;;5014166;28;19912;-81
2022/09/28 09:16:42;;;;;;;;;;;14.80;99.90;;;;;;5035598;28;19962;-80
2022/09/28 09:19:11;;;;;;;;;;;15.00;99.90;;;;;;5039235;28;20290;-83
2022/09/28 09:21:42;;;;;;;;;;;15.00;99.90;;;;;;5038639;28;19925;-81
2022/09/28 09:24:20;;;;;;;;;;;14.80;99.90;;;;;;5038069;28;19967;-80
2022/09/28 09:26:49;;;;;;;;;;;14.90;99.90;;;;;;5038937;28;19999;-81
2022/09/28 09:29:21;;;;;;;;;;;15.50;99.90;;;;;;5037922;28;19963;-82
2022/09/28 09:31:58;;;;;;;;;;;15.50;99.90;;;;;;5038413;28;20023;-80
2022/09/28 09:34:31;;;;;;;;;;;15.30;99.90;;;;;;5018771;28;19917;-81
2022/09/28 09:37:12;;;;;;;;;;;15.40;99.90;;;;;;5019235;28;19913;-81
2022/09/28 09:39:44;;;;;;;;;;;15.40;99.90;;;;;;5038047;28;19912;-80
2022/09/28 09:42:17;;;;;;;;;;;15.50;99.90;;;;;;5038794;28;19924;-80
2022/09/28 09:45:03;;;;;;;;;;;15.40;99.90;;;;;;5041519;28;19938;-81
2022/09/28 09:47:32;;;;;;;;;;;15.20;99.90;;;;;;5019857;28;19917;-80
2022/09/28 09:50:01;;;;;;;;;;;15.40;99.90;;;;;;5031929;28;19913;-81
2022/09/28 09:52:42;;;;;;;;;;;15.20;99.90;;;;;;5057743;28;19923;-81
2022/09/28 09:55:18;;;;;;;;;;;15.60;99.90;;;;;;5043716;28;19913;-80
2022/09/28 09:57:49;;;;;;;;;;;15.90;99.90;;;;;;5035076;28;20685;-81
2022/09/28 10:00:16;;;;;;;;;;;15.90;99.90;;;;;;5038053;28;19925;-81
2022/09/28 10:02:43;;;;;;;;;;;15.80;99.90;;;;;;5040933;28;20010;-81
2022/09/28 10:05:09;;;;;;;;;;;15.70;99.90;;;;;;5028912;28;19924;-81
2022/09/28 10:07:50;;;;;;;;;;;16.00;99.90;;;;;;5033012;28;19917;-80
2022/09/28 10:10:25;;;;;;;;;;;16.40;99.90;;;;;;5041133;28;20349;-81
2022/09/28 10:12:50;;;;;;;;;;;16.40;99.90;;;;;;5042040;28;20782;-81
2022/09/28 10:15:20;;;;;;;;;;;16.00;99.90;;;;;;5040071;28;19923;-79
2022/09/28 10:17:45;;;;;;;;;;;15.70;99.90;;;;;;5039405;28;19917;-80
2022/09/28 10:20:12;;;;;;;;;;;15.50;99.90;;;;;;5054857;28;19913;-79
2022/09/28 10:22:38;;;;;;;;;;;15.90;99.90;;;;;;5062415;28;19920;-80
2022/09/28 10:25:04;;;;;;;;;;;15.80;99.90;;;;;;5077043;28;20320;-81
2022/09/28 10:27:32;;;;;;;;;;;15.40;99.90;;;;;;5085723;28;19919;-80
2022/09/28 10:30:10;;;;;;;;;;;15.50;99.90;;;;;;5085543;28;19919;-80
2022/09/28 10:32:37;;;;;;;;;;;15.30;99.90;;;;;;5063127;28;19995;-80
2022/09/28 10:35:13;;;;;;;;;;;15.40;99.90;;;;;;5063101;28;20384;-80
2022/09/28 10:37:58;;;;;;;;;;;15.30;99.90;;;;;;5078692;28;19912;-79
2022/09/28 10:40:30;;;;;;;;;;;15.30;99.90;;;;;;5083692;28;19916;-80
2022/09/28 10:43:05;;;;;;;;;;;15.50;99.90;;;;;;5063739;28;20435;-80
2022/09/28 10:45:33;;;;;;;;;;;16.30;99.90;;;;;;5063679;28;19924;-80
2022/09/28 10:48:00;;;;;;;;;;;16.40;99.90;;;;;;5065678;28;19919;-79
2022/09/28 10:50:26;;;;;;;;;;;17.00;99.90;;;;;;5063787;28;19916;-80
2022/09/28 10:52:52;;;;;;;;;;;17.00;99.90;;;;;;5063421;28;19920;-80
2022/09/28 10:55:21;;;;;;;;;;;17.40;99.90;;;;;;5080963;28;19984;-80
2022/09/28 10:57:47;;;;;;;;;;;17.00;99.90;;;;;;5081044;28;20305;-81
2022/09/28 11:00:31;;;;;;;;;;;17.00;99.90;;;;;;5064586;28;19972;-81
2022/09/28 11:02:56;;;;;;;;;;;16.50;99.90;;;;;;5061479;28;20010;-81
2022/09/28 11:05:26;;;;;;;;;;;16.60;99.90;;;;;;5063142;28;19916;-80
2022/09/28 11:07:54;;;;;;;;;;;16.60;99.90;;;;;;5079068;28;20826;-80
2022/09/28 11:10:26;;;;;;;;;;;16.50;99.90;;;;;;5083474;28;19916;-81
2022/09/28 11:12:53;;;;;;;;;;;16.20;99.90;;;;;;5063814;28;19912;-80
2022/09/28 11:15:20;;;;;;;;;;;15.90;99.90;;;;;;5063893;28;19916;-81
2022/09/28 11:17:45;;;;;;;;;;;15.70;99.90;;;;;;5063265;28;19927;-81
2022/09/28 11:20:23;;;;;;;;;;;15.50;99.90;;;;;;5063645;28;19921;-80
2022/09/28 11:22:50;;;;;;;;;;;15.50;99.90;;;;;;5067803;28;19912;-80
2022/09/28 11:25:15;;;;;;;;;;;15.60;99.90;;;;;;5066558;28;19916;-80
2022/09/28 11:27:42;;;;;;;;;;;15.90;99.90;;;;;;5073083;28;19939;-80
2022/09/28 11:30:20;;;;;;;;;;;16.30;99.90;;;;;;5071288;28;19916;-80
2022/09/28 11:32:46;;;;;;;;;;;16.70;99.90;;;;;;5070570;28;19956;-80
2022/09/28 11:35:26;;;;;;;;;;;16.90;99.90;;;;;;5062806;28;19956;-81
2022/09/28 11:38:15;;;;;;;;;;;17.00;99.90;;;;;;5061028;28;19963;-79
2022/09/28 11:41:01;;;;;;;;;;;16.90;99.90;;;;;;5061722;28;19946;-80
2022/09/28 11:43:29;;;;;;;;;;;17.10;99.90;;;;;;5086283;28;19963;-80
2022/09/28 11:45:55;;;;;;;;;;;16.90;99.90;;;;;;5081893;28;20023;-80
2022/09/28 11:48:22;;;;;;;;;;;16.80;99.90;;;;;;5063534;28;20019;-80
2022/09/28 11:50:53;;;;;;;;;;;16.90;99.90;;;;;;5063776;28;19916;-80
2022/09/28 11:53:22;;;;;;;;;;;17.10;99.90;;;;;;5062466;28;19916;-79
2022/09/28 11:55:54;;;;;;;;;;;17.00;99.90;;;;;;5064325;28;20460;-79
2022/09/28 11:58:34;;;;;;;;;;;16.80;99.90;;;;;;5064331;28;20146;-81
2022/09/28 12:01:14;;;;;;;;;;;16.90;99.90;;;;;;5064139;28;20570;-79
2022/09/28 12:03:42;;;;;;;;;;;16.80;99.90;;;;;;5062407;28;19924;-79
2022/09/28 12:06:14;;;;;;;;;;;16.80;99.90;;;;;;5063431;28;20452;-80
2022/09/28 12:08:44;;;;;;;;;;;16.60;99.90;;;;;;5063915;28;19958;-79
2022/09/28 12:11:14;;;;;;;;;;;16.60;99.90;;;;;;5063683;28;19919;-79
2022/09/28 12:13:46;;;;;;;;;;;16.50;99.90;;;;;;5063159;28;20642;-79
2022/09/28 12:16:14;;;;;;;;;;;16.50;99.90;;;;;;5062445;28;19927;-80
2022/09/28 12:18:42;;;;;;;;;;;16.40;99.90;;;;;;5063091;28;19923;-80
2022/09/28 12:21:31;;;;;;;;;;;16.70;99.90;;;;;;5063766;28;19928;-79
2022/09/28 12:24:01;;;;;;;;;;;16.90;99.90;;;;;;5060788;28;19931;-79
2022/09/28 12:26:36;;;;;;;;;;;17.00;99.90;;;;;;5062269;28;19916;-79
2022/09/28 12:29:05;;;;;;;;;;;16.90;99.90;;;;;;5063171;28;19916;-79
2022/09/28 12:31:33;;;;;;;;;;;16.80;99.90;;;;;;5062886;28;19923;-80
2022/09/28 12:34:00;;;;;;;;;;;16.60;99.90;;;;;;5063139;28;19912;-81
2022/09/28 12:36:27;;;;;;;;;;;16.90;99.90;;;;;;5061147;28;19925;-79
2022/09/28 12:38:58;;;;;;;;;;;16.50;99.90;;;;;;5063275;28;19913;-80
2022/09/28 12:41:39;;;;;;;;;;;16.40;99.90;;;;;;5062450;28;19925;-79
2022/09/28 12:44:23;;;;;;;;;;;16.70;99.90;;;;;;5095434;28;19920;-80
2022/09/28 12:47:10;;;;;;;;;;;16.80;99.90;;;;;;5061636;28;19916;-80
2022/09/28 12:49:48;;;;;;;;;;;16.80;99.90;;;;;;5049932;28;19920;-80
2022/09/28 12:52:20;;;;;;;;;;;16.70;99.90;;;;;;5075068;28;20369;-80
2022/09/28 12:54:45;;;;;;;;;;;16.70;99.90;;;;;;5051243;28;19912;-79
2022/09/28 12:57:36;;;;;;;;;;;16.40;99.90;;;;;;5050389;28;19940;-78
2022/09/28 13:00:10;;;;;;;;;;;15.90;99.90;;;;;;5078416;28;19996;-80
2022/09/28 13:02:43;;;;;;;;;;;15.50;99.90;;;;;;5040409;28;19925;-79
2022/09/28 13:05:14;;;;;;;;;;;15.20;99.90;;;;;;5049134;28;19936;-79
2022/09/28 13:07:41;;;;;;;;;;;15.20;99.90;;;;;;5046193;28;20301;-79
2022/09/28 13:10:19;;;;;;;;;;;15.30;99.90;;;;;;5043793;28;20404;-78
2022/09/28 13:12:44;;;;;;;;;;;15.60;99.90;;;;;;5041724;28;19939;-79
2022/09/28 13:15:30;;;;;;;;;;;15.70;99.90;;;;;;5040918;28;19917;-79
2022/09/28 13:17:56;;;;;;;;;;;15.60;99.90;;;;;;5046279;28;19913;-78
2022/09/28 13:20:30;;;;;;;;;;;15.50;99.90;;;;;;5041319;28;20693;-79
2022/09/28 13:23:05;;;;;;;;;;;15.30;99.90;;;;;;5043130;28;19920;-79
2022/09/28 13:25:35;;;;;;;;;;;15.20;99.90;;;;;;5045027;28;20274;-79
2022/09/28 13:28:02;;;;;;;;;;;15.20;99.90;;;;;;5045729;28;20453;-79
2022/09/28 13:30:27;;;;;;;;;;;15.20;99.90;;;;;;5040122;28;19913;-79
2022/09/28 13:32:55;;;;;;;;;;;15.30;99.90;;;;;;5047418;28;19939;-79
2022/09/28 13:35:21;;;;;;;;;;;15.10;99.90;;;;;;5045891;28;20384;-79
2022/09/28 13:37:47;;;;;;;;;;;15.40;99.90;;;;;;5047083;28;19917;-79
2022/09/28 13:40:13;;;;;;;;;;;15.40;99.90;;;;;;5045468;28;19923;-79
2022/09/28 13:42:41;;;;;;;;;;;15.90;99.90;;;;;;5051599;28;19925;-80
2022/09/28 13:45:13;;;;;;;;;;;16.00;99.90;;;;;;5046834;28;19916;-79
2022/09/28 13:47:51;;;;;;;;;;;16.10;99.90;;;;;;5058359;28;20466;-79
2022/09/28 13:50:16;;;;;;;;;;;16.10;99.90;;;;;;5060449;28;19916;-79
2022/09/28 13:52:57;;;;;;;;;;;16.00;99.90;;;;;;5052107;28;19917;-79
2022/09/28 13:55:23;;;;;;;;;;;16.20;99.90;;;;;;5057372;28;19916;-79
2022/09/28 13:57:58;;;;;;;;;;;16.30;99.90;;;;;;5051314;28;19928;-79
2022/09/28 14:00:26;;;;;;;;;;;16.20;99.90;;;;;;5058459;28;19916;-78
2022/09/28 14:02:52;;;;;;;;;;;16.20;99.90;;;;;;5054907;28;19921;-78
2022/09/28 14:05:20;;;;;;;;;;;16.00;99.90;;;;;;5048296;28;19928;-79
2022/09/28 14:08:04;;;;;;;;;;;16.00;99.90;;;;;;5090741;28;19921;-79
2022/09/28 14:10:50;;;;;;;;;;;16.10;99.90;;;;;;5050443;28;19916;-79
2022/09/28 14:13:34;;;;;;;;;;;16.20;99.90;;;;;;5051021;28;19916;-80
2022/09/28 14:16:20;;;;;;;;;;;16.10;99.90;;;;;;5050533;28;20313;-79
2022/09/28 14:18:51;;;;;;;;;;;15.90;99.90;;;;;;5056190;28;19920;-80
2022/09/28 14:21:26;;;;;;;;;;;15.90;99.90;;;;;;5061933;28;19932;-80
2022/09/28 14:23:59;;;;;;;;;;;16.10;99.90;;;;;;5054363;28;19921;-79
2022/09/28 14:26:43;;;;;;;;;;;16.30;99.90;;;;;;5054340;28;19917;-79
2022/09/28 14:29:09;;;;;;;;;;;16.30;99.90;;;;;;5062173;28;19991;-79
2022/09/28 14:31:39;;;;;;;;;;;16.20;99.90;;;;;;5064181;28;19947;-78
2022/09/28 14:34:21;;;;;;;;;;;16.50;99.90;;;;;;5059916;28;19942;-79
2022/09/28 14:42:20;;;;;;;;;;;16.60;99.90;;;;;;5049418;28;19979;-80
2022/09/28 14:45:12;;;;;;;;;;;16.50;99.90;;;;;;5051903;28;19917;-80